Time;durP1;ratioP1;P1;durP2;ratioP2;P2;SDS_P1;SDS_P2;PMS_P1;PMS_P2;Temp;Humidity;BMP_temperature;BMP_pressure;BME280_temperature;BME280_humidity;BME280_pressure;Samples;Min_cycle;Max_cycle;Signal;HPM_P1;HPM_P2
2021/03/30 00:01:30;;;;;;;9.67;5.47;;;8.70;99.90;;;;;;5033567;28;20443;-78
2021/03/30 00:03:58;;;;;;;8.23;5.70;;;8.70;99.90;;;;;;5033245;28;20419;-78
2021/03/30 00:06:29;;;;;;;9.60;6.00;;;8.70;99.90;;;;;;5033216;28;20824;-78
2021/03/30 00:08:55;;;;;;;6.23;5.30;;;8.60;99.90;;;;;;5035638;28;20463;-78
2021/03/30 00:11:25;;;;;;;6.20;5.70;;;8.60;99.90;;;;;;5037050;28;20929;-78
2021/03/30 00:13:56;;;;;;;9.70;6.57;;;8.60;99.90;;;;;;5025252;28;20498;-78
2021/03/30 00:16:26;;;;;;;9.10;6.73;;;8.60;99.90;;;;;;5017339;28;20511;-78
2021/03/30 00:18:55;;;;;;;7.10;5.17;;;8.60;99.90;;;;;;5019301;28;20503;-78
2021/03/30 00:21:26;;;;;;;6.30;5.43;;;8.50;99.90;;;;;;5037204;28;20463;-78
2021/03/30 00:23:54;;;;;;;7.60;6.50;;;8.50;99.90;;;;;;5036893;28;20420;-78
2021/03/30 00:26:22;;;;;;;6.03;5.43;;;8.50;99.90;;;;;;5035751;28;20963;-78
2021/03/30 00:28:53;;;;;;;7.13;5.90;;;8.50;99.90;;;;;;5035970;28;20400;-78
2021/03/30 00:31:19;;;;;;;7.57;5.63;;;8.50;99.90;;;;;;5036709;28;20525;-78
2021/03/30 00:33:45;;;;;;;7.70;6.17;;;8.40;99.90;;;;;;5035755;28;20570;-78
2021/03/30 00:36:15;;;;;;;11.23;6.50;;;8.40;99.90;;;;;;5036575;28;20427;-78
2021/03/30 00:38:46;;;;;;;15.77;5.90;;;8.40;99.90;;;;;;5019573;28;20898;-78
2021/03/30 00:41:14;;;;;;;9.50;5.80;;;8.30;99.90;;;;;;5035876;28;20528;-79
2021/03/30 00:43:44;;;;;;;7.23;5.77;;;8.30;99.90;;;;;;5025697;28;20436;-78
2021/03/30 00:46:17;;;;;;;7.83;5.80;;;8.30;99.90;;;;;;4999272;28;20468;-78
2021/03/30 00:48:46;;;;;;;8.33;6.30;;;8.30;99.90;;;;;;5017383;28;20518;-78
2021/03/30 00:51:15;;;;;;;12.30;6.13;;;8.20;99.90;;;;;;5035476;28;20546;-79
2021/03/30 00:54:08;;;;;;;8.03;6.00;;;8.20;99.90;;;;;;5038083;28;20425;-78
2021/03/30 00:56:52;;;;;;;6.63;5.73;;;8.20;99.90;;;;;;5035563;28;20402;-78
2021/03/30 00:59:25;;;;;;;7.23;5.80;;;8.20;99.90;;;;;;5035346;28;20770;-78
2021/03/30 01:01:53;;;;;;;6.77;5.70;;;8.20;99.90;;;;;;5033513;28;20882;-78
2021/03/30 01:04:26;;;;;;;8.07;6.13;;;8.20;99.90;;;;;;5015686;28;20457;-78
2021/03/30 01:06:59;;;;;;;7.30;6.53;;;8.10;99.90;;;;;;5015537;28;20416;-78
2021/03/30 01:09:43;;;;;;;6.83;5.33;;;8.10;99.90;;;;;;5016287;28;20397;-79
2021/03/30 01:12:40;;;;;;;9.40;5.90;;;8.10;99.90;;;;;;5016553;28;20439;-78
2021/03/30 01:15:44;;;;;;;7.17;6.00;;;8.10;99.90;;;;;;5016101;28;20917;-78
2021/03/30 01:18:27;;;;;;;7.40;6.40;;;8.10;99.90;;;;;;5015174;28;20446;-78
2021/03/30 01:21:07;;;;;;;9.67;6.13;;;8.10;99.90;;;;;;5033210;28;20431;-78
2021/03/30 01:23:53;;;;;;;7.83;6.00;;;8.10;99.90;;;;;;5035681;28;20929;-78
2021/03/30 01:26:25;;;;;;;11.10;7.03;;;8.00;99.90;;;;;;5035593;28;20494;-79
2021/03/30 01:28:56;;;;;;;7.83;6.03;;;8.10;99.90;;;;;;5034708;28;20403;-78
2021/03/30 01:31:25;;;;;;;8.00;5.73;;;7.90;99.90;;;;;;5034677;28;20435;-78
2021/03/30 01:33:58;;;;;;;8.40;5.80;;;8.00;99.90;;;;;;5017413;28;20443;-78
2021/03/30 01:36:26;;;;;;;6.87;5.47;;;7.90;99.90;;;;;;5014833;28;20754;-79
2021/03/30 01:38:52;;;;;;;9.10;6.03;;;7.80;99.90;;;;;;5015605;28;20900;-78
2021/03/30 01:41:28;;;;;;;9.40;6.10;;;7.80;99.90;;;;;;5015108;28;20502;-78
2021/03/30 01:43:59;;;;;;;8.30;6.57;;;7.70;99.90;;;;;;5015681;28;20408;-78
2021/03/30 01:46:34;;;;;;;7.20;5.60;;;7.70;99.90;;;;;;5015552;28;20470;-79
2021/03/30 01:49:07;;;;;;;9.23;6.17;;;7.70;99.90;;;;;;5017838;28;20434;-78
2021/03/30 01:51:37;;;;;;;6.10;5.40;;;7.70;99.90;;;;;;5035172;28;20857;-78
2021/03/30 01:54:06;;;;;;;11.30;6.07;;;7.70;99.90;;;;;;5035162;28;20489;-78
2021/03/30 01:56:36;;;;;;;8.60;6.70;;;7.60;99.90;;;;;;5034187;28;20391;-78
2021/03/30 01:59:08;;;;;;;6.47;5.87;;;7.60;99.90;;;;;;5017651;28;20805;-78
2021/03/30 02:01:40;;;;;;;12.73;6.40;;;7.60;99.90;;;;;;5035085;28;20435;-77
2021/03/30 02:04:18;;;;;;;6.80;5.30;;;7.50;99.90;;;;;;5015505;28;20503;-78
2021/03/30 02:06:50;;;;;;;11.50;6.07;;;7.50;99.90;;;;;;5014833;28;20485;-78
2021/03/30 02:09:29;;;;;;;9.47;6.37;;;7.50;99.90;;;;;;5015247;28;20497;-78
2021/03/30 02:12:06;;;;;;;7.13;5.30;;;7.50;99.90;;;;;;4998476;28;20524;-78
2021/03/30 02:14:34;;;;;;;6.30;5.80;;;7.50;99.90;;;;;;5014437;28;20782;-79
2021/03/30 02:17:25;;;;;;;6.53;5.93;;;7.50;99.90;;;;;;5014317;28;20481;-79
2021/03/30 02:20:10;;;;;;;7.67;6.07;;;7.40;99.90;;;;;;5024782;28;20533;-79
2021/03/30 02:23:07;;;;;;;8.90;6.50;;;7.40;99.90;;;;;;5033712;28;20907;-78
2021/03/30 02:25:42;;;;;;;7.83;7.03;;;7.40;99.90;;;;;;5033610;28;20464;-79
2021/03/30 02:28:12;;;;;;;8.57;6.33;;;7.30;99.90;;;;;;5034512;28;20410;-78
2021/03/30 02:30:44;;;;;;;8.40;5.80;;;7.30;99.90;;;;;;5032965;28;20497;-78
2021/03/30 02:33:16;;;;;;;9.80;6.67;;;7.30;99.90;;;;;;5034463;28;20409;-78
2021/03/30 02:35:45;;;;;;;8.30;7.10;;;7.30;99.90;;;;;;5034380;28;20435;-79
2021/03/30 02:38:15;;;;;;;7.80;6.90;;;7.30;99.90;;;;;;5034702;28;20486;-78
2021/03/30 02:40:48;;;;;;;7.60;6.50;;;7.30;99.90;;;;;;5034252;28;20798;-79
2021/03/30 02:43:15;;;;;;;8.73;6.70;;;7.20;99.90;;;;;;5010986;28;20566;-78
2021/03/30 02:45:46;;;;;;;8.27;6.13;;;7.20;99.90;;;;;;5014411;28;20475;-78
2021/03/30 02:48:15;;;;;;;7.37;6.00;;;7.20;99.90;;;;;;4997504;28;20426;-78
2021/03/30 02:50:44;;;;;;;7.87;6.43;;;7.10;99.90;;;;;;5029980;28;20966;-78
2021/03/30 02:53:14;;;;;;;7.93;5.73;;;7.10;99.90;;;;;;5034006;28;20756;-78
2021/03/30 02:55:44;;;;;;;7.73;6.20;;;7.10;99.90;;;;;;5033275;28;20433;-78
2021/03/30 02:58:15;;;;;;;8.43;6.13;;;7.10;99.90;;;;;;5034008;28;20833;-78
2021/03/30 03:00:43;;;;;;;7.83;7.07;;;7.10;99.90;;;;;;5033413;28;20430;-78
2021/03/30 03:03:12;;;;;;;9.30;7.90;;;7.00;99.90;;;;;;5034234;28;20434;-79
2021/03/30 03:05:44;;;;;;;10.37;8.20;;;7.00;99.90;;;;;;5034154;28;20459;-79
2021/03/30 03:08:15;;;;;;;9.53;6.63;;;7.10;99.90;;;;;;5033970;28;20460;-78
2021/03/30 03:10:47;;;;;;;8.80;6.40;;;7.00;99.90;;;;;;5032925;28;20424;-79
2021/03/30 03:13:21;;;;;;;7.83;7.10;;;7.00;99.90;;;;;;5027096;28;20819;-79
2021/03/30 03:15:54;;;;;;;8.70;7.00;;;7.00;99.90;;;;;;5013931;28;20870;-78
2021/03/30 03:18:25;;;;;;;8.97;7.07;;;7.00;99.90;;;;;;5015579;28;21909;-78
2021/03/30 03:20:54;;;;;;;9.20;6.45;;;7.00;99.90;;;;;;5015954;28;20455;-79
2021/03/30 03:23:21;;;;;;;8.53;7.63;;;6.90;99.90;;;;;;5014240;28;20269;-78
2021/03/30 03:25:50;;;;;;;14.55;8.00;;;6.90;99.90;;;;;;5013957;28;20998;-78
2021/03/30 03:28:18;;;;;;;10.87;7.20;;;6.90;99.90;;;;;;5012978;28;20593;-78
2021/03/30 03:30:50;;;;;;;11.23;7.83;;;6.90;99.90;;;;;;5013871;28;20458;-79
2021/03/30 03:33:25;;;;;;;11.30;7.10;;;6.90;99.90;;;;;;5014178;28;20417;-78
2021/03/30 03:36:17;;;;;;;10.80;7.97;;;6.90;99.90;;;;;;5014043;28;20529;-79
2021/03/30 03:38:50;;;;;;;11.17;7.40;;;6.90;99.90;;;;;;5011429;28;20540;-78
2021/03/30 03:41:19;;;;;;;9.13;7.20;;;6.90;99.90;;;;;;5013185;28;20440;-79
2021/03/30 03:43:49;;;;;;;8.87;7.93;;;6.80;99.90;;;;;;5016358;28;20446;-78
2021/03/30 03:46:18;;;;;;;6.43;5.83;;;6.80;99.90;;;;;;5016629;28;20473;-78
2021/03/30 03:48:47;;;;;;;8.03;7.23;;;6.80;99.90;;;;;;5018928;28;20422;-78
2021/03/30 03:51:14;;;;;;;8.90;7.57;;;6.70;99.90;;;;;;5036519;28;20476;-78
2021/03/30 03:53:47;;;;;;;15.00;7.60;;;6.70;99.90;;;;;;5037694;28;20428;-79
2021/03/30 03:56:19;;;;;;;10.27;7.17;;;6.70;99.90;;;;;;5037801;28;20431;-78
2021/03/30 03:58:52;;;;;;;9.40;6.60;;;6.70;99.90;;;;;;5036825;28;20883;-78
2021/03/30 04:01:29;;;;;;;9.03;7.87;;;6.70;99.90;;;;;;5020213;28;20422;-78
2021/03/30 04:04:00;;;;;;;8.90;7.80;;;6.70;99.90;;;;;;5037117;28;20457;-78
2021/03/30 04:06:38;;;;;;;8.50;7.60;;;6.60;99.90;;;;;;5037210;28;20448;-78
2021/03/30 04:09:11;;;;;;;8.47;7.00;;;6.60;99.90;;;;;;5020182;28;20167;-78
2021/03/30 04:11:44;;;;;;;8.13;6.73;;;6.60;99.90;;;;;;5037421;28;20425;-79
2021/03/30 04:14:13;;;;;;;10.63;8.30;;;6.60;99.90;;;;;;5036481;28;20823;-78
2021/03/30 04:16:43;;;;;;;11.20;8.80;;;6.60;99.90;;;;;;5026889;28;20437;-79
2021/03/30 04:19:14;;;;;;;9.50;7.73;;;6.50;99.90;;;;;;5017018;28;20480;-78
2021/03/30 04:21:43;;;;;;;9.70;8.77;;;6.40;99.90;;;;;;5017188;28;20920;-78
2021/03/30 04:24:13;;;;;;;12.07;6.57;;;6.40;99.90;;;;;;5032502;28;20426;-78
2021/03/30 04:26:43;;;;;;;7.35;6.57;;;6.40;99.90;;;;;;5000334;28;20576;-78
2021/03/30 04:29:12;;;;;;;9.32;7.78;;;6.30;99.90;;;;;;5032506;28;20277;-79
2021/03/30 04:31:45;;;;;;;8.95;8.05;;;6.30;99.90;;;;;;5016556;28;20318;-78
2021/03/30 04:34:11;;;;;;;9.90;8.95;;;6.20;99.90;;;;;;5017169;28;20612;-78
2021/03/30 04:36:37;;;;;;;9.00;8.10;;;6.20;99.90;;;;;;5016878;28;20334;-79
2021/03/30 04:39:05;;;;;;;11.53;7.97;;;6.30;99.90;;;;;;5016256;28;20429;-78
2021/03/30 04:41:38;;;;;;;9.30;7.80;;;6.20;99.90;;;;;;5016828;28;20725;-78
2021/03/30 04:44:09;;;;;;;10.05;6.55;;;6.20;99.90;;;;;;5016777;28;21068;-78
2021/03/30 04:46:38;;;;;;;9.77;7.30;;;6.20;99.90;;;;;;5026554;28;20328;-79
2021/03/30 04:49:06;;;;;;;8.05;7.25;;;6.20;99.90;;;;;;5031957;28;20442;-78
2021/03/30 04:51:36;;;;;;;10.30;8.10;;;6.20;99.90;;;;;;5017503;28;20206;-79
2021/03/30 04:54:04;;;;;;;9.23;6.70;;;6.20;99.90;;;;;;5015574;28;20873;-79
2021/03/30 04:56:36;;;;;;;9.20;7.13;;;6.20;99.90;;;;;;5015862;28;20240;-78
2021/03/30 04:59:03;;;;;;;7.90;7.20;;;6.20;99.90;;;;;;5015496;28;20942;-78
2021/03/30 05:01:32;;;;;;;11.65;7.60;;;6.20;99.90;;;;;;5016422;28;20183;-78
2021/03/30 05:04:03;;;;;;;10.03;8.10;;;6.20;99.90;;;;;;4998892;28;20206;-78
2021/03/30 05:06:32;;;;;;;8.02;7.13;;;6.10;99.90;;;;;;5015054;28;20462;-78
2021/03/30 05:09:01;;;;;;;9.53;7.57;;;6.10;99.90;;;;;;5015719;28;20615;-79
2021/03/30 05:11:31;;;;;;;7.67;6.97;;;6.10;99.90;;;;;;5015574;28;20476;-79
2021/03/30 05:14:03;;;;;;;9.97;8.60;;;6.10;99.90;;;;;;5015198;28;20414;-79
2021/03/30 05:16:36;;;;;;;11.00;8.65;;;6.10;99.90;;;;;;4999215;28;20868;-78
2021/03/30 05:19:07;;;;;;;9.97;8.43;;;6.00;99.90;;;;;;5019326;28;20237;-78
2021/03/30 05:21:40;;;;;;;7.55;6.75;;;5.90;99.90;;;;;;5035833;28;20408;-78
2021/03/30 05:24:07;;;;;;;11.90;8.38;;;5.90;99.90;;;;;;5034785;28;20186;-78
2021/03/30 05:26:39;;;;;;;9.57;8.70;;;5.90;99.90;;;;;;5035035;28;20203;-79
2021/03/30 05:29:09;;;;;;;10.30;9.02;;;6.00;99.90;;;;;;5035109;28;20475;-78
2021/03/30 05:31:40;;;;;;;8.25;7.40;;;5.90;99.90;;;;;;5035660;28;20546;-79
2021/03/30 05:34:13;;;;;;;12.43;8.50;;;5.90;99.90;;;;;;5034809;28;20190;-78
2021/03/30 05:36:39;;;;;;;8.35;7.55;;;5.80;99.90;;;;;;5035930;28;20197;-79
2021/03/30 05:39:10;;;;;;;9.85;8.98;;;5.90;99.90;;;;;;5035553;28;20185;-79
2021/03/30 05:41:43;;;;;;;8.35;7.60;;;5.90;99.90;;;;;;5034706;28;20186;-82
2021/03/30 05:44:09;;;;;;;14.83;7.83;;;6.00;99.90;;;;;;4982194;28;20192;-84
2021/03/30 05:46:44;;;;;;;10.43;8.70;;;6.00;99.90;;;;;;5024971;28;20455;-85
2021/03/30 05:49:14;;;;;;;11.23;8.20;;;5.90;99.90;;;;;;4992397;28;20186;-84
2021/03/30 05:51:46;;;;;;;13.93;8.38;;;5.90;99.90;;;;;;5013839;28;20178;-83
2021/03/30 05:54:14;;;;;;;8.90;8.10;;;5.90;99.90;;;;;;5014261;28;20203;-84
2021/03/30 05:56:42;;;;;;;9.85;8.70;;;6.00;99.90;;;;;;5013915;28;20273;-84
2021/03/30 05:59:19;;;;;;;10.25;8.48;;;6.00;99.90;;;;;;5012963;28;20166;-83
2021/03/30 06:01:49;;;;;;;10.52;8.00;;;6.10;99.90;;;;;;4980530;28;20194;-81
2021/03/30 06:04:19;;;;;;;10.18;7.00;;;6.20;99.90;;;;;;5014273;28;20291;-81
2021/03/30 06:06:48;;;;;;;9.80;8.88;;;6.20;99.90;;;;;;5013387;28;20182;-80
2021/03/30 06:09:17;;;;;;;12.33;8.40;;;6.20;99.90;;;;;;4995190;28;20638;-81
2021/03/30 06:11:45;;;;;;;10.85;8.45;;;6.40;99.90;;;;;;4993842;28;20423;-81
2021/03/30 06:14:50;;;;;;;9.67;7.57;;;6.40;99.90;;;;;;4996850;28;20518;-81
2021/03/30 06:17:16;;;;;;;10.93;7.57;;;6.50;99.90;;;;;;5012646;28;20437;-80
2021/03/30 06:19:57;;;;;;;11.93;10.38;;;6.60;99.90;;;;;;5021804;28;20568;-80
2021/03/30 06:22:32;;;;;;;13.40;8.93;;;6.70;99.90;;;;;;5016483;28;20216;-80
2021/03/30 06:24:58;;;;;;;9.98;7.72;;;6.70;99.90;;;;;;5032083;28;20449;-81
2021/03/30 06:27:30;;;;;;;11.63;7.13;;;6.80;99.90;;;;;;5033142;28;20189;-80
2021/03/30 06:29:59;;;;;;;9.13;8.23;;;6.90;99.90;;;;;;5033302;28;20844;-81
2021/03/30 06:32:30;;;;;;;8.40;7.50;;;7.00;99.90;;;;;;5033507;28;20471;-80
2021/03/30 06:35:11;;;;;;;8.43;7.53;;;7.20;99.90;;;;;;5032885;28;20429;-81
2021/03/30 06:37:39;;;;;;;8.38;7.50;;;7.30;99.90;;;;;;5032819;28;20417;-82
2021/03/30 06:40:25;;;;;;;8.80;7.90;;;7.50;99.90;;;;;;5033138;28;20607;-79
2021/03/30 06:42:59;;;;;;;11.20;8.97;;;7.60;99.90;;;;;;5032873;28;20418;-79
2021/03/30 06:45:28;;;;;;;10.47;9.20;;;7.80;99.90;;;;;;5022273;28;20555;-79
2021/03/30 06:48:02;;;;;;;12.37;8.67;;;8.00;99.90;;;;;;5013206;28;20499;-79
2021/03/30 06:50:37;;;;;;;13.63;9.17;;;8.10;99.90;;;;;;5043487;28;20445;-79
2021/03/30 06:53:14;;;;;;;12.10;7.50;;;8.30;99.90;;;;;;5031869;28;20923;-79
2021/03/30 06:55:50;;;;;;;11.43;8.43;;;8.50;99.90;;;;;;5032766;28;20412;-82
2021/03/30 06:58:19;;;;;;;12.40;8.50;;;8.70;99.90;;;;;;4998998;28;20430;-82
2021/03/30 07:01:38;;;;;;;11.80;7.73;;;8.80;99.90;;;;;;5023995;28;20461;-82
2021/03/30 07:08:37;;;;;;;14.13;8.67;;;9.20;99.90;;;;;;5037810;23;20945;-70
2021/03/30 07:11:04;;;;;;;9.30;8.03;;;9.50;99.90;;;;;;5045957;28;20924;-70
2021/03/30 07:13:32;;;;;;;12.03;8.03;;;9.70;99.90;;;;;;5030645;28;20450;-70
2021/03/30 07:16:02;;;;;;;13.67;9.20;;;9.80;99.90;;;;;;5030344;28;20427;-70
2021/03/30 07:18:43;;;;;;;10.20;8.93;;;10.00;99.90;;;;;;5023094;28;20432;-70
2021/03/30 07:21:18;;;;;;;12.73;8.63;;;10.20;99.70;;;;;;5016223;28;20426;-70
2021/03/30 07:23:55;;;;;;;14.13;7.77;;;10.40;99.30;;;;;;5029792;28;20486;-69
2021/03/30 07:26:26;;;;;;;13.47;8.50;;;10.60;98.80;;;;;;5030723;28;20463;-71
2021/03/30 07:29:09;;;;;;;9.67;8.23;;;10.80;97.50;;;;;;5030913;28;20436;-70
2021/03/30 07:31:58;;;;;;;8.37;7.60;;;10.90;97.10;;;;;;5029678;28;20435;-70
2021/03/30 07:34:50;;;;;;;8.87;7.70;;;11.10;96.00;;;;;;5003493;28;20819;-69
2021/03/30 07:37:52;;;;;;;13.60;8.83;;;11.30;95.70;;;;;;5019304;28;20427;-71
2021/03/30 07:40:26;;;;;;;12.90;8.20;;;11.40;95.40;;;;;;5016286;28;20432;-71
2021/03/30 07:42:53;;;;;;;7.83;7.13;;;11.60;94.90;;;;;;5031139;28;20723;-70
2021/03/30 07:45:23;;;;;;;8.40;7.60;;;11.80;94.00;;;;;;5013241;28;20479;-70
2021/03/30 07:47:52;;;;;;;9.60;7.60;;;11.90;94.00;;;;;;5031414;28;20439;-68
2021/03/30 07:50:44;;;;;;;9.90;7.30;;;12.00;93.80;;;;;;5006017;28;20469;-70
2021/03/30 07:53:56;;;;;;;11.77;8.10;;;12.20;93.60;;;;;;5022756;28;20441;-70
2021/03/30 07:56:22;;;;;;;13.77;8.90;;;12.40;92.70;;;;;;5015995;28;20431;-71
2021/03/30 07:58:49;;;;;;;8.30;7.60;;;12.60;92.80;;;;;;5011740;28;20432;-70
2021/03/30 08:01:19;;;;;;;11.93;6.73;;;12.70;92.10;;;;;;4995332;28;20422;-70
2021/03/30 08:03:47;;;;;;;9.20;7.33;;;12.90;91.90;;;;;;5012195;28;20443;-70
2021/03/30 08:06:34;;;;;;;13.37;9.53;;;13.10;90.90;;;;;;5016565;28;20864;-70
2021/03/30 08:09:09;;;;;;;8.60;7.80;;;13.30;90.40;;;;;;5030676;28;20827;-70
2021/03/30 08:11:43;;;;;;;10.10;9.03;;;13.50;89.20;;;;;;5032073;28;20418;-70
2021/03/30 08:14:28;;;;;;;9.40;8.57;;;13.60;87.40;;;;;;5030899;28;20443;-70
2021/03/30 08:16:56;;;;;;;10.13;8.87;;;13.90;86.90;;;;;;5031043;28;20456;-70
2021/03/30 08:19:29;;;;;;;9.40;8.60;;;14.00;86.20;;;;;;5031658;28;20456;-69
2021/03/30 08:22:00;;;;;;;14.83;10.00;;;14.10;85.30;;;;;;5025500;28;20425;-69
2021/03/30 08:24:48;;;;;;;10.00;9.10;;;14.30;84.40;;;;;;5009504;28;20437;-68
2021/03/30 08:27:39;;;;;;;11.27;9.17;;;14.40;83.80;;;;;;5000246;28;20445;-70
2021/03/30 08:30:16;;;;;;;10.17;9.20;;;14.60;82.10;;;;;;5015580;28;20412;-70
2021/03/30 08:32:47;;;;;;;10.53;9.07;;;14.70;83.10;;;;;;5015662;28;20450;-70
2021/03/30 08:35:35;;;;;;;12.70;9.20;;;14.90;81.00;;;;;;5015953;28;20980;-69
2021/03/30 08:38:05;;;;;;;13.63;9.20;;;15.00;80.10;;;;;;5015861;28;20785;-69
2021/03/30 08:40:34;;;;;;;11.63;10.30;;;15.20;79.80;;;;;;5015784;28;20446;-69
2021/03/30 08:43:19;;;;;;;11.40;9.43;;;15.40;78.70;;;;;;5014734;28;20949;-70
2021/03/30 08:46:04;;;;;;;11.80;10.47;;;15.50;78.70;;;;;;5015618;28;20546;-70
2021/03/30 08:48:49;;;;;;;10.03;9.00;;;15.70;78.50;;;;;;5014629;28;20499;-69
2021/03/30 08:51:17;;;;;;;9.70;8.70;;;15.90;77.70;;;;;;5012946;28;20418;-69
2021/03/30 08:54:12;;;;;;;12.10;9.20;;;16.10;76.80;;;;;;4998556;28;20456;-70
2021/03/30 08:56:43;;;;;;;11.87;9.70;;;16.20;75.20;;;;;;5014845;28;20472;-69
2021/03/30 08:59:11;;;;;;;13.10;9.33;;;16.30;75.40;;;;;;4996683;28;20427;-69
2021/03/30 09:01:37;;;;;;;14.03;9.87;;;16.40;73.10;;;;;;5012750;28;20508;-69
2021/03/30 09:04:04;;;;;;;13.40;9.93;;;16.60;73.10;;;;;;5010993;28;20515;-69
2021/03/30 09:06:36;;;;;;;11.17;9.60;;;16.80;74.10;;;;;;5013082;28;20536;-69
2021/03/30 09:09:03;;;;;;;11.43;10.23;;;17.00;71.00;;;;;;5013245;28;20553;-70
2021/03/30 09:11:35;;;;;;;13.63;9.07;;;17.20;70.10;;;;;;5014007;28;20420;-69
2021/03/30 09:14:05;;;;;;;11.73;10.53;;;17.40;69.00;;;;;;5014248;28;20491;-70
2021/03/30 09:16:33;;;;;;;12.10;10.93;;;17.50;67.60;;;;;;5015295;28;20402;-69
2021/03/30 09:19:37;;;;;;;12.00;10.77;;;17.60;67.30;;;;;;5013801;28;20419;-70
2021/03/30 09:22:27;;;;;;;13.53;10.70;;;18.00;64.90;;;;;;4990393;28;20474;-70
2021/03/30 09:27:43;;;;;;;14.17;11.00;;;18.30;63.30;;;;;;5046148;28;20529;-70
2021/03/30 09:30:13;;;;;;;13.20;10.60;;;18.50;62.60;;;;;;5022525;28;20422;-70
2021/03/30 09:32:41;;;;;;;14.13;9.70;;;18.60;61.30;;;;;;5025254;28;20477;-69
2021/03/30 09:35:14;;;;;;;12.43;11.17;;;18.70;61.50;;;;;;5029094;28;20428;-69
2021/03/30 09:37:47;;;;;;;12.73;11.40;;;18.90;59.40;;;;;;5010946;28;21258;-69
2021/03/30 09:40:16;;;;;;;13.70;11.23;;;19.10;58.20;;;;;;5033965;28;20939;-69
2021/03/30 09:42:44;;;;;;;14.00;11.60;;;19.30;59.00;;;;;;5025426;28;20501;-69
2021/03/30 09:45:12;;;;;;;13.03;11.60;;;19.40;58.50;;;;;;5023414;28;20463;-71
2021/03/30 09:47:39;;;;;;;15.43;13.37;;;19.60;57.70;;;;;;5024458;28;20872;-69
2021/03/30 09:50:13;;;;;;;18.03;12.37;;;19.70;57.50;;;;;;5032852;28;20861;-70
2021/03/30 09:52:39;;;;;;;21.27;13.90;;;19.90;57.20;;;;;;5033509;28;20535;-71
2021/03/30 09:55:07;;;;;;;15.00;12.20;;;20.10;56.30;;;;;;5033142;28;20529;-70
2021/03/30 09:57:35;;;;;;;18.80;12.80;;;20.10;56.00;;;;;;5016579;28;20446;-70
2021/03/30 10:00:03;;;;;;;18.80;14.70;;;20.20;55.10;;;;;;5029411;28;20443;-70
2021/03/30 10:02:37;;;;;;;17.23;14.03;;;20.30;54.90;;;;;;5034107;28;20870;-72
2021/03/30 10:05:07;;;;;;;18.07;13.43;;;20.40;54.80;;;;;;5032567;28;20459;-70
2021/03/30 10:07:40;;;;;;;22.13;16.63;;;20.60;54.70;;;;;;5032899;28;20560;-70
2021/03/30 10:10:06;;;;;;;22.63;16.97;;;20.80;53.30;;;;;;5034277;28;20931;-70
2021/03/30 10:12:38;;;;;;;19.80;14.80;;;20.90;52.90;;;;;;5032656;28;20487;-70
2021/03/30 10:15:06;;;;;;;22.83;14.80;;;21.10;51.90;;;;;;5015838;28;20437;-70
2021/03/30 10:17:33;;;;;;;15.40;13.37;;;21.30;52.10;;;;;;5033804;28;20526;-72
2021/03/30 10:20:00;;;;;;;18.10;13.70;;;21.40;51.30;;;;;;5032149;28;20792;-76
2021/03/30 10:22:36;;;;;;;20.47;14.73;;;21.40;51.20;;;;;;5033687;28;20454;-73
2021/03/30 10:25:16;;;;;;;17.07;13.93;;;21.40;51.20;;;;;;5033491;28;20453;-74
2021/03/30 10:28:00;;;;;;;17.13;14.43;;;21.60;50.80;;;;;;5034176;28;20461;-74
2021/03/30 10:30:45;;;;;;;17.20;14.13;;;21.80;50.20;;;;;;5033454;28;20413;-73
2021/03/30 10:33:18;;;;;;;16.87;14.93;;;21.80;50.80;;;;;;5011176;28;20472;-76
2021/03/30 10:35:44;;;;;;;19.10;15.90;;;21.70;49.10;;;;;;5024011;28;20432;-74
2021/03/30 10:38:11;;;;;;;17.23;15.50;;;21.80;50.30;;;;;;5031999;28;20427;-73
2021/03/30 10:40:39;;;;;;;19.93;17.47;;;22.10;51.30;;;;;;5031925;28;20833;-74
2021/03/30 10:43:23;;;;;;;19.13;15.00;;;22.30;49.50;;;;;;5029187;28;20445;-71
2021/03/30 10:45:51;;;;;;;19.33;16.80;;;22.40;46.60;;;;;;5013977;28;20518;-71
2021/03/30 10:48:17;;;;;;;26.47;17.90;;;22.50;47.40;;;;;;5028543;28;20428;-72
2021/03/30 10:50:44;;;;;;;20.20;17.30;;;22.70;47.10;;;;;;5021071;28;20772;-70
2021/03/30 10:53:11;;;;;;;19.10;16.73;;;22.90;48.40;;;;;;5029583;28;20490;-70
2021/03/30 10:55:39;;;;;;;20.70;16.93;;;23.10;46.00;;;;;;5031575;28;20520;-70
2021/03/30 10:58:10;;;;;;;22.93;17.90;;;23.20;45.50;;;;;;5013461;28;20881;-70
2021/03/30 11:00:37;;;;;;;26.43;18.40;;;23.10;44.60;;;;;;5014311;28;20514;-70
2021/03/30 11:03:05;;;;;;;20.67;16.17;;;23.10;45.10;;;;;;5027122;28;20459;-70
2021/03/30 11:05:31;;;;;;;19.13;16.97;;;23.20;45.00;;;;;;5029138;28;20469;-69
2021/03/30 11:07:58;;;;;;;20.93;16.80;;;23.40;44.00;;;;;;5030382;28;20471;-69
2021/03/30 11:10:25;;;;;;;24.20;16.73;;;23.50;43.30;;;;;;5016736;28;20521;-70
2021/03/30 11:12:51;;;;;;;20.30;15.80;;;23.50;42.80;;;;;;5031612;28;20462;-70
2021/03/30 11:15:17;;;;;;;24.13;18.67;;;23.40;43.70;;;;;;5031309;28;20920;-69
2021/03/30 11:17:43;;;;;;;19.80;16.93;;;23.50;41.60;;;;;;5032527;28;20437;-70
2021/03/30 11:20:15;;;;;;;23.40;18.27;;;23.50;41.40;;;;;;5032083;28;20464;-70
2021/03/30 11:22:48;;;;;;;18.83;16.83;;;23.50;42.40;;;;;;5030060;28;20449;-70
2021/03/30 11:25:15;;;;;;;20.83;16.37;;;23.60;43.40;;;;;;5025771;28;20466;-70
2021/03/30 11:27:45;;;;;;;19.73;17.53;;;23.80;42.70;;;;;;5019656;28;20434;-70
2021/03/30 11:30:21;;;;;;;22.40;17.40;;;24.10;44.50;;;;;;5006866;28;20988;-70
2021/03/30 11:33:06;;;;;;;20.43;17.60;;;24.30;41.10;;;;;;5015341;28;20481;-70
2021/03/30 11:35:53;;;;;;;21.13;18.07;;;24.20;42.40;;;;;;5013360;28;20423;-70
2021/03/30 11:38:22;;;;;;;21.97;16.47;;;24.40;41.60;;;;;;5012985;28;20447;-70
2021/03/30 11:40:48;;;;;;;26.63;18.37;;;24.50;39.80;;;;;;5032205;28;20443;-70
2021/03/30 11:43:14;;;;;;;21.57;18.00;;;24.40;38.90;;;;;;5031819;28;20465;-70
2021/03/30 11:45:42;;;;;;;19.33;15.03;;;24.10;37.70;;;;;;5030974;28;20516;-69
2021/03/30 11:48:09;;;;;;;20.00;15.97;;;24.10;39.50;;;;;;5030091;28;20435;-70
2021/03/30 11:50:36;;;;;;;22.30;17.77;;;24.20;38.80;;;;;;5011011;28;20804;-70
2021/03/30 11:53:02;;;;;;;22.07;17.30;;;24.40;38.90;;;;;;5029568;28;20519;-70
2021/03/30 11:55:29;;;;;;;20.70;15.60;;;24.40;37.90;;;;;;5000412;28;20435;-69
2021/03/30 11:57:55;;;;;;;21.77;16.07;;;24.40;37.70;;;;;;5024041;28;20445;-70
2021/03/30 12:00:22;;;;;;;18.13;14.80;;;24.60;38.30;;;;;;5029420;28;20468;-69
2021/03/30 12:02:49;;;;;;;20.33;16.70;;;24.80;36.40;;;;;;5030583;28;20467;-70
2021/03/30 12:05:18;;;;;;;17.03;15.33;;;24.90;36.60;;;;;;5034664;28;20463;-69
2021/03/30 12:07:45;;;;;;;16.60;14.80;;;25.20;35.80;;;;;;5033881;28;20828;-69
2021/03/30 12:10:12;;;;;;;23.07;15.80;;;25.30;35.30;;;;;;5023818;28;20429;-70
2021/03/30 12:12:38;;;;;;;17.83;15.57;;;25.40;33.80;;;;;;5023584;28;20444;-71
2021/03/30 12:15:07;;;;;;;16.93;15.07;;;25.50;35.70;;;;;;5006765;28;20514;-70
2021/03/30 12:17:33;;;;;;;17.07;15.30;;;25.70;35.00;;;;;;5027518;28;20440;-70
2021/03/30 12:19:59;;;;;;;18.00;15.90;;;25.90;33.50;;;;;;5024136;28;20433;-70
2021/03/30 12:22:26;;;;;;;17.67;14.67;;;25.80;33.70;;;;;;5022863;28;20458;-69
2021/03/30 12:24:52;;;;;;;17.03;15.20;;;25.70;33.60;;;;;;5001814;28;21050;-70
2021/03/30 12:27:18;;;;;;;19.60;16.30;;;25.40;33.50;;;;;;5034673;28;20450;-70
2021/03/30 12:29:45;;;;;;;20.90;15.67;;;25.10;33.90;;;;;;5025659;28;20435;-70
2021/03/30 12:32:12;;;;;;;15.23;13.60;;;24.90;35.30;;;;;;5030952;28;20450;-70
2021/03/30 12:34:41;;;;;;;22.07;15.30;;;24.70;36.20;;;;;;5034278;28;20522;-70
2021/03/30 12:37:11;;;;;;;20.53;15.43;;;24.50;35.40;;;;;;5033919;28;20431;-70
2021/03/30 12:39:37;;;;;;;20.97;16.13;;;24.40;36.40;;;;;;5034610;28;20813;-70
2021/03/30 12:42:07;;;;;;;22.00;15.23;;;24.30;35.70;;;;;;5017955;28;20422;-70
2021/03/30 12:44:34;;;;;;;18.60;14.00;;;24.10;36.70;;;;;;5034030;28;20413;-70
2021/03/30 12:47:01;;;;;;;14.43;12.93;;;24.20;34.80;;;;;;5025468;28;20442;-70
2021/03/30 12:49:27;;;;;;;16.20;13.43;;;24.40;33.60;;;;;;5032153;28;20897;-70
2021/03/30 12:51:53;;;;;;;18.97;15.17;;;24.50;33.20;;;;;;5022711;28;20777;-70
2021/03/30 12:54:20;;;;;;;19.93;14.13;;;24.90;33.00;;;;;;5012193;28;20411;-70
2021/03/30 12:56:46;;;;;;;18.10;15.60;;;25.40;33.80;;;;;;5022971;28;20424;-70
2021/03/30 12:59:12;;;;;;;15.77;14.17;;;25.70;32.30;;;;;;5016928;28;20768;-70
2021/03/30 13:01:38;;;;;;;15.20;13.70;;;25.90;31.00;;;;;;5033552;28;20515;-70
2021/03/30 13:04:05;;;;;;;17.40;15.70;;;26.00;30.80;;;;;;5033345;28;20454;-70
2021/03/30 13:06:31;;;;;;;14.93;12.93;;;26.00;30.00;;;;;;5033450;28;20546;-70
2021/03/30 13:08:57;;;;;;;12.60;11.40;;;26.10;31.40;;;;;;5033444;28;20466;-70
2021/03/30 13:11:24;;;;;;;15.37;13.67;;;26.30;27.20;;;;;;5031900;28;20405;-69
2021/03/30 13:13:50;;;;;;;16.13;13.47;;;26.20;29.10;;;;;;5007766;28;20495;-70
2021/03/30 13:16:17;;;;;;;12.70;11.40;;;26.30;29.40;;;;;;5021047;28;20435;-70